sensor_id;sensor_type;location;lat;lon;timestamp;pressure;altitude;pressure_sealevel;temperature;humidity
65553;BME280;52465;51.560;14.368;2022-11-02T00:01:25;100682.38;;;17.42;66.66
65553;BME280;52465;51.560;14.368;2022-11-02T00:03:52;100682.38;;;17.42;66.50
65553;BME280;52465;51.560;14.368;2022-11-02T00:06:17;100682.56;;;17.41;66.52
65553;BME280;52465;51.560;14.368;2022-11-02T00:08:43;100691.53;;;17.40;66.58
65553;BME280;52465;51.560;14.368;2022-11-02T00:11:08;100693.31;;;17.39;66.59
65553;BME280;52465;51.560;14.368;2022-11-02T00:13:33;100694.78;;;17.42;66.64
65553;BME280;52465;51.560;14.368;2022-11-02T00:16:08;100691.69;;;17.38;66.61
65553;BME280;52465;51.560;14.368;2022-11-02T00:18:35;100691.69;;;17.38;66.60
65553;BME280;52465;51.560;14.368;2022-11-02T00:21:01;100691.69;;;17.38;66.57
65553;BME280;52465;51.560;14.368;2022-11-02T00:23:27;100699.63;;;17.38;66.72
65553;BME280;52465;51.560;14.368;2022-11-02T00:25:54;100690.25;;;17.36;66.64
65553;BME280;52465;51.560;14.368;2022-11-02T00:28:20;100705.31;;;17.35;66.67
65553;BME280;52465;51.560;14.368;2022-11-02T00:30:45;100702.66;;;17.35;66.45
65553;BME280;52465;51.560;14.368;2022-11-02T00:33:10;100707.78;;;17.37;66.53
65553;BME280;52465;51.560;14.368;2022-11-02T00:35:36;100698.19;;;17.36;66.63
65553;BME280;52465;51.560;14.368;2022-11-02T00:38:02;100697.38;;;17.35;66.50
65553;BME280;52465;51.560;14.368;2022-11-02T00:40:27;100699.22;;;17.35;66.53
65553;BME280;52465;51.560;14.368;2022-11-02T00:42:52;100695.75;;;17.34;66.51
65553;BME280;52465;51.560;14.368;2022-11-02T00:45:18;100692.25;;;17.34;66.65
65553;BME280;52465;51.560;14.368;2022-11-02T00:47:43;100693.28;;;17.33;66.44
65553;BME280;52465;51.560;14.368;2022-11-02T00:50:08;100701.22;;;17.33;66.63
65553;BME280;52465;51.560;14.368;2022-11-02T00:52:34;100700.19;;;17.34;66.64
65553;BME280;52465;51.560;14.368;2022-11-02T00:54:59;100700.38;;;17.32;66.54
65553;BME280;52465;51.560;14.368;2022-11-02T00:57:24;100702.22;;;17.32;66.60
65553;BME280;52465;51.560;14.368;2022-11-02T00:59:49;100687.91;;;17.26;66.58
65553;BME280;52465;51.560;14.368;2022-11-02T01:02:15;100695.31;;;17.31;66.78
65553;BME280;52465;51.560;14.368;2022-11-02T01:04:40;100697.13;;;17.30;66.75
65553;BME280;52465;51.560;14.368;2022-11-02T01:07:05;100692.84;;;17.29;66.59
65553;BME280;52465;51.560;14.368;2022-11-02T01:09:31;100687.72;;;17.28;66.58
65553;BME280;52465;51.560;14.368;2022-11-02T01:11:57;100697.31;;;17.29;66.66
65553;BME280;52465;51.560;14.368;2022-11-02T01:14:22;100694.84;;;17.27;66.52
65553;BME280;52465;51.560;14.368;2022-11-02T01:16:47;100695.66;;;17.28;66.51
65553;BME280;52465;51.560;14.368;2022-11-02T01:19:13;100686.91;;;17.27;66.63
65553;BME280;52465;51.560;14.368;2022-11-02T01:21:38;100692.41;;;17.26;66.59
65553;BME280;52465;51.560;14.368;2022-11-02T01:24:04;100697.69;;;17.26;66.61
65553;BME280;52465;51.560;14.368;2022-11-02T01:26:29;100694.44;;;17.24;66.52
65553;BME280;52465;51.560;14.368;2022-11-02T01:28:54;100689.94;;;17.24;66.43
65553;BME280;52465;51.560;14.368;2022-11-02T01:31:20;100693.59;;;17.23;66.68
65553;BME280;52465;51.560;14.368;2022-11-02T01:33:46;100693.59;;;17.23;66.45
65553;BME280;52465;51.560;14.368;2022-11-02T01:36:13;100697.44;;;17.21;66.60
65553;BME280;52465;51.560;14.368;2022-11-02T01:38:38;100699.97;;;17.07;66.40
65553;BME280;52465;51.560;14.368;2022-11-02T01:41:04;100698.72;;;16.88;66.15
65553;BME280;52465;51.560;14.368;2022-11-02T01:43:35;100701.22;;;16.75;65.93
65553;BME280;52465;51.560;14.368;2022-11-02T01:48:42;100702.75;;;16.70;65.65
65553;BME280;52465;51.560;14.368;2022-11-02T01:51:15;100689.75;;;16.68;65.48
65553;BME280;52465;51.560;14.368;2022-11-02T01:53:45;100693.00;;;16.70;65.37
65553;BME280;52465;51.560;14.368;2022-11-02T01:56:13;100685.06;;;16.70;65.29
65553;BME280;52465;51.560;14.368;2022-11-02T01:58:40;100685.72;;;16.72;65.15
65553;BME280;52465;51.560;14.368;2022-11-02T02:01:06;100686.56;;;16.73;65.01
65553;BME280;52465;51.560;14.368;2022-11-02T02:03:34;100690.03;;;16.73;64.95
65553;BME280;52465;51.560;14.368;2022-11-02T02:06:03;100682.91;;;16.74;65.07
65553;BME280;52465;51.560;14.368;2022-11-02T02:08:30;100681.09;;;16.74;65.13
65553;BME280;52465;51.560;14.368;2022-11-02T02:10:57;100679.25;;;16.75;65.06
65553;BME280;52465;51.560;14.368;2022-11-02T02:13:23;100671.34;;;16.75;65.04
65553;BME280;52465;51.560;14.368;2022-11-02T02:18:49;100671.34;;;16.75;65.07
65553;BME280;52465;51.560;14.368;2022-11-02T02:21:48;100677.44;;;16.75;65.03
65553;BME280;52465;51.560;14.368;2022-11-02T02:27:15;100673.97;;;16.75;65.08
65553;BME280;52465;51.560;14.368;2022-11-02T02:29:55;100679.25;;;16.75;65.38
65553;BME280;52465;51.560;14.368;2022-11-02T02:32:37;100675.81;;;16.74;65.22
65553;BME280;52465;51.560;14.368;2022-11-02T02:37:46;100679.47;;;16.73;65.51
65553;BME280;52465;51.560;14.368;2022-11-02T02:40:18;100679.47;;;16.73;65.35
65553;BME280;52465;51.560;14.368;2022-11-02T02:42:56;100682.09;;;16.73;65.14
65553;BME280;52465;51.560;14.368;2022-11-02T02:45:39;100685.56;;;16.74;65.38
65553;BME280;52465;51.560;14.368;2022-11-02T02:48:16;100683.09;;;16.72;65.51
65553;BME280;52465;51.560;14.368;2022-11-02T02:50:47;100678.66;;;16.73;65.55
65553;BME280;52465;51.560;14.368;2022-11-02T02:53:14;100680.28;;;16.74;65.50
65553;BME280;52465;51.560;14.368;2022-11-02T02:55:44;100681.28;;;16.73;65.43
65553;BME280;52465;51.560;14.368;2022-11-02T02:58:16;100679.63;;;16.72;65.58
65553;BME280;52465;51.560;14.368;2022-11-02T03:00:43;100678.81;;;16.71;65.63
65553;BME280;52465;51.560;14.368;2022-11-02T03:03:14;100680.44;;;16.72;65.47
65553;BME280;52465;51.560;14.368;2022-11-02T03:05:41;100676.16;;;16.71;65.56
65553;BME280;52465;51.560;14.368;2022-11-02T03:08:09;100682.09;;;16.73;65.60
65553;BME280;52465;51.560;14.368;2022-11-02T03:10:46;100684.09;;;16.71;65.54
65553;BME280;52465;51.560;14.368;2022-11-02T03:16:09;100684.09;;;16.71;65.67
65553;BME280;52465;51.560;14.368;2022-11-02T03:18:48;100684.25;;;16.70;65.60
65553;BME280;52465;51.560;14.368;2022-11-02T03:21:27;100683.28;;;16.71;65.57
65553;BME280;52465;51.560;14.368;2022-11-02T03:23:59;100684.25;;;16.70;65.63
65553;BME280;52465;51.560;14.368;2022-11-02T03:26:35;100686.09;;;16.69;65.71
65553;BME280;52465;51.560;14.368;2022-11-02T03:29:13;100687.91;;;16.69;65.59
65553;BME280;52465;51.560;14.368;2022-11-02T03:36:52;100686.09;;;16.69;65.77
65553;BME280;52465;51.560;14.368;2022-11-02T03:39:31;100687.09;;;16.68;65.69
65553;BME280;52465;51.560;14.368;2022-11-02T03:41:59;100689.91;;;16.66;65.84
65553;BME280;52465;51.560;14.368;2022-11-02T03:44:27;100688.09;;;16.67;65.68
65553;BME280;52465;51.560;14.368;2022-11-02T03:46:57;100694.38;;;16.66;65.68
65553;BME280;52465;51.560;14.368;2022-11-02T03:49:26;100684.19;;;16.63;65.81
65553;BME280;52465;51.560;14.368;2022-11-02T03:51:54;100696.19;;;16.65;65.80
65553;BME280;52465;51.560;14.368;2022-11-02T03:54:47;100690.09;;;16.65;65.87
65553;BME280;52465;51.560;14.368;2022-11-02T03:57:18;100688.47;;;16.64;65.93
65553;BME280;52465;51.560;14.368;2022-11-02T03:59:45;100688.47;;;16.64;66.02
65553;BME280;52465;51.560;14.368;2022-11-02T04:02:11;100688.47;;;16.64;65.88
65553;BME280;52465;51.560;14.368;2022-11-02T04:04:51;100689.47;;;16.63;65.92
65553;BME280;52465;51.560;14.368;2022-11-02T04:07:23;100686.84;;;16.63;65.90
65553;BME280;52465;51.560;14.368;2022-11-02T04:09:50;100693.94;;;16.62;65.88
65553;BME280;52465;51.560;14.368;2022-11-02T04:12:16;100694.97;;;16.61;65.79
65553;BME280;52465;51.560;14.368;2022-11-02T04:14:59;100693.13;;;16.62;65.98
65553;BME280;52465;51.560;14.368;2022-11-02T04:17:25;100699.22;;;16.62;66.06
65553;BME280;52465;51.560;14.368;2022-11-02T04:20:09;100695.94;;;16.60;65.83
65553;BME280;52465;51.560;14.368;2022-11-02T04:22:35;100686.38;;;16.59;65.87
65553;BME280;52465;51.560;14.368;2022-11-02T04:25:19;100689.84;;;16.60;65.82
65553;BME280;52465;51.560;14.368;2022-11-02T04:27:50;100689.22;;;16.58;65.92
65553;BME280;52465;51.560;14.368;2022-11-02T04:30:20;100688.41;;;16.57;65.89
65553;BME280;52465;51.560;14.368;2022-11-02T04:32:48;100695.31;;;16.58;66.04
65553;BME280;52465;51.560;14.368;2022-11-02T04:35:39;100688.41;;;16.57;66.04
65553;BME280;52465;51.560;14.368;2022-11-02T04:38:05;100689.22;;;16.58;65.88
65553;BME280;52465;51.560;14.368;2022-11-02T04:40:58;100692.03;;;16.56;65.93
65553;BME280;52465;51.560;14.368;2022-11-02T04:43:42;100692.03;;;16.56;65.85
65553;BME280;52465;51.560;14.368;2022-11-02T04:46:08;100689.56;;;16.55;65.97
65553;BME280;52465;51.560;14.368;2022-11-02T04:48:33;100683.19;;;16.49;66.18
65553;BME280;52465;51.560;14.368;2022-11-02T04:50:59;100694.84;;;16.55;65.85
65553;BME280;52465;51.560;14.368;2022-11-02T04:53:24;100688.75;;;16.54;66.05
65553;BME280;52465;51.560;14.368;2022-11-02T04:55:49;100687.94;;;16.54;66.06
65553;BME280;52465;51.560;14.368;2022-11-02T04:58:14;100681.00;;;16.53;65.70
65553;BME280;52465;51.560;14.368;2022-11-02T05:00:40;100679.38;;;16.52;66.05
65553;BME280;52465;51.560;14.368;2022-11-02T05:03:07;100681.81;;;16.53;65.94
65553;BME280;52465;51.560;14.368;2022-11-02T05:05:32;100681.00;;;16.53;65.99
65553;BME280;52465;51.560;14.368;2022-11-02T05:07:57;100672.25;;;16.52;66.02
65553;BME280;52465;51.560;14.368;2022-11-02T05:10:22;100679.38;;;16.52;66.03
65553;BME280;52465;51.560;14.368;2022-11-02T05:12:55;100681.22;;;16.51;66.02
65553;BME280;52465;51.560;14.368;2022-11-02T05:15:20;100682.22;;;16.50;66.02
65553;BME280;52465;51.560;14.368;2022-11-02T05:17:47;100694.41;;;16.51;65.98
65553;BME280;52465;51.560;14.368;2022-11-02T05:20:12;100681.56;;;16.48;65.97
65553;BME280;52465;51.560;14.368;2022-11-02T05:22:40;100693.75;;;16.49;65.99
65553;BME280;52465;51.560;14.368;2022-11-02T05:25:05;100695.59;;;16.49;66.33
65553;BME280;52465;51.560;14.368;2022-11-02T05:27:31;100697.41;;;16.48;66.04
65553;BME280;52465;51.560;14.368;2022-11-02T05:29:56;100695.78;;;16.47;66.01
65553;BME280;52465;51.560;14.368;2022-11-02T05:32:21;100694.34;;;16.45;66.20
65553;BME280;52465;51.560;14.368;2022-11-02T05:34:46;100689.06;;;16.45;66.15
65553;BME280;52465;51.560;14.368;2022-11-02T05:37:12;100699.25;;;16.48;66.12
65553;BME280;52465;51.560;14.368;2022-11-02T05:39:37;100688.88;;;16.46;66.13
65553;BME280;52465;51.560;14.368;2022-11-02T05:42:02;100691.50;;;16.46;66.16
65553;BME280;52465;51.560;14.368;2022-11-02T05:44:28;100689.88;;;16.45;66.00
65553;BME280;52465;51.560;14.368;2022-11-02T05:46:53;100684.59;;;16.45;66.19
65553;BME280;52465;51.560;14.368;2022-11-02T05:49:18;100675.94;;;16.36;66.34
65553;BME280;52465;51.560;14.368;2022-11-02T05:51:43;100693.50;;;16.44;66.23
65553;BME280;52465;51.560;14.368;2022-11-02T05:54:09;100698.78;;;16.44;66.24
65553;BME280;52465;51.560;14.368;2022-11-02T05:56:34;100698.78;;;16.44;66.08
65553;BME280;52465;51.560;14.368;2022-11-02T05:58:59;100697.16;;;16.43;66.25
65553;BME280;52465;51.560;14.368;2022-11-02T06:01:24;100694.69;;;16.42;66.26
65553;BME280;52465;51.560;14.368;2022-11-02T06:03:50;100693.69;;;16.43;66.12
65553;BME280;52465;51.560;14.368;2022-11-02T06:06:15;100691.03;;;16.43;66.07
65553;BME280;52465;51.560;14.368;2022-11-02T06:08:41;100699.97;;;16.42;66.04
65553;BME280;52465;51.560;14.368;2022-11-02T06:11:08;100706.28;;;16.40;66.21
65553;BME280;52465;51.560;14.368;2022-11-02T06:13:34;100703.63;;;16.40;66.22
65553;BME280;52465;51.560;14.368;2022-11-02T06:16:00;100704.44;;;16.41;66.03
65553;BME280;52465;51.560;14.368;2022-11-02T06:18:26;100704.63;;;16.39;66.20
65553;BME280;52465;51.560;14.368;2022-11-02T06:20:51;100709.94;;;16.39;66.28
65553;BME280;52465;51.560;14.368;2022-11-02T06:23:17;100708.09;;;16.40;66.31
65553;BME280;52465;51.560;14.368;2022-11-02T06:25:48;100709.09;;;16.39;66.14
65553;BME280;52465;51.560;14.368;2022-11-02T06:28:14;100709.09;;;16.39;66.05
65553;BME280;52465;51.560;14.368;2022-11-02T06:30:39;100705.63;;;16.38;66.26
65553;BME280;52465;51.560;14.368;2022-11-02T06:33:06;100707.44;;;16.38;66.26
65553;BME280;52465;51.560;14.368;2022-11-02T06:35:31;100715.38;;;16.38;66.16
65553;BME280;52465;51.560;14.368;2022-11-02T06:37:56;100716.38;;;16.37;66.24
65553;BME280;52465;51.560;14.368;2022-11-02T06:40:22;100715.38;;;16.38;66.04
65553;BME280;52465;51.560;14.368;2022-11-02T06:42:47;100713.75;;;16.37;66.15
65553;BME280;52465;51.560;14.368;2022-11-02T06:45:12;100712.72;;;16.38;66.07
65553;BME280;52465;51.560;14.368;2022-11-02T06:47:37;100724.31;;;16.37;66.20
65553;BME280;52465;51.560;14.368;2022-11-02T06:50:04;100725.13;;;16.37;65.93
65553;BME280;52465;51.560;14.368;2022-11-02T06:52:30;100719.41;;;16.34;65.99
65553;BME280;52465;51.560;14.368;2022-11-02T06:54:56;100719.22;;;16.35;66.14
65553;BME280;52465;51.560;14.368;2022-11-02T06:57:21;100725.31;;;16.36;66.14
65553;BME280;52465;51.560;14.368;2022-11-02T06:59:47;100733.25;;;16.36;66.17
65553;BME280;52465;51.560;14.368;2022-11-02T07:02:12;100734.06;;;16.36;66.25
65553;BME280;52465;51.560;14.368;2022-11-02T07:04:37;100734.88;;;16.37;66.24
65553;BME280;52465;51.560;14.368;2022-11-02T07:07:03;100739.34;;;16.36;65.96
65553;BME280;52465;51.560;14.368;2022-11-02T07:09:28;100737.72;;;16.35;66.17
65553;BME280;52465;51.560;14.368;2022-11-02T07:11:53;100741.16;;;16.36;66.18
65553;BME280;52465;51.560;14.368;2022-11-02T07:14:18;100743.00;;;16.35;66.04
65553;BME280;52465;51.560;14.368;2022-11-02T07:16:44;100735.06;;;16.35;66.03
65553;BME280;52465;51.560;14.368;2022-11-02T07:19:09;100734.88;;;16.37;66.12
65553;BME280;52465;51.560;14.368;2022-11-02T07:21:34;100742.19;;;16.35;66.11
65553;BME280;52465;51.560;14.368;2022-11-02T07:24:00;100741.16;;;16.36;66.02
65553;BME280;52465;51.560;14.368;2022-11-02T07:26:25;100737.72;;;16.35;66.14
65553;BME280;52465;51.560;14.368;2022-11-02T07:28:51;100741.16;;;16.36;66.10
65553;BME280;52465;51.560;14.368;2022-11-02T07:31:16;100741.16;;;16.36;66.10
65553;BME280;52465;51.560;14.368;2022-11-02T07:33:41;100739.53;;;16.35;66.05
65553;BME280;52465;51.560;14.368;2022-11-02T07:36:07;100740.69;;;16.32;66.06
65553;BME280;52465;51.560;14.368;2022-11-02T07:38:32;100749.28;;;16.34;66.07
65553;BME280;52465;51.560;14.368;2022-11-02T07:40:57;100747.47;;;16.35;66.06
65553;BME280;52465;51.560;14.368;2022-11-02T07:43:23;100746.66;;;16.34;66.05
65553;BME280;52465;51.560;14.368;2022-11-02T07:45:48;100748.47;;;16.34;66.04
65553;BME280;52465;51.560;14.368;2022-11-02T07:48:13;100743.19;;;16.34;66.03
65553;BME280;52465;51.560;14.368;2022-11-02T07:50:39;100750.09;;;16.35;66.12
65553;BME280;52465;51.560;14.368;2022-11-02T07:53:04;100736.91;;;16.35;66.17
65553;BME280;52465;51.560;14.368;2022-11-02T07:55:30;100747.47;;;16.35;66.02
65553;BME280;52465;51.560;14.368;2022-11-02T08:00:27;100743.81;;;16.36;66.02
65553;BME280;52465;51.560;14.368;2022-11-02T08:02:54;100744.81;;;16.35;65.99
65553;BME280;52465;51.560;14.368;2022-11-02T08:05:19;100738.72;;;16.34;66.10
65553;BME280;52465;51.560;14.368;2022-11-02T08:07:46;100739.34;;;16.36;66.02
65553;BME280;52465;51.560;14.368;2022-11-02T08:10:11;100734.88;;;16.37;65.87
65553;BME280;52465;51.560;14.368;2022-11-02T08:12:36;100733.44;;;16.34;65.89
65553;BME280;52465;51.560;14.368;2022-11-02T08:15:01;100727.97;;;16.36;65.90
65553;BME280;52465;51.560;14.368;2022-11-02T08:17:27;100732.22;;;16.37;65.92
65553;BME280;52465;51.560;14.368;2022-11-02T08:19:52;100724.31;;;16.37;65.85
65553;BME280;52465;51.560;14.368;2022-11-02T08:22:17;100733.06;;;16.37;65.94
65553;BME280;52465;51.560;14.368;2022-11-02T08:24:42;100731.22;;;16.38;65.87
65553;BME280;52465;51.560;14.368;2022-11-02T08:27:08;100739.16;;;16.38;65.94
65553;BME280;52465;51.560;14.368;2022-11-02T08:29:33;100741.78;;;16.38;65.96
65553;BME280;52465;51.560;14.368;2022-11-02T08:31:59;100755.00;;;16.38;66.02
65553;BME280;52465;51.560;14.368;2022-11-02T08:34:24;100753.19;;;16.38;66.07
65553;BME280;52465;51.560;14.368;2022-11-02T08:36:50;100744.28;;;16.39;66.03
65553;BME280;52465;51.560;14.368;2022-11-02T08:39:16;100745.09;;;16.40;66.00
65553;BME280;52465;51.560;14.368;2022-11-02T08:41:41;100747.75;;;16.40;66.08
65553;BME280;52465;51.560;14.368;2022-11-02T08:44:07;100736.34;;;16.39;65.95
65553;BME280;52465;51.560;14.368;2022-11-02T08:46:33;100743.28;;;16.40;66.02
65553;BME280;52465;51.560;14.368;2022-11-02T08:48:58;100737.16;;;16.40;66.02
65553;BME280;52465;51.560;14.368;2022-11-02T08:51:23;100745.72;;;16.42;66.08
65553;BME280;52465;51.560;14.368;2022-11-02T08:53:48;100744.72;;;16.43;65.99
65553;BME280;52465;51.560;14.368;2022-11-02T08:56:14;100753.47;;;16.44;66.06
65553;BME280;52465;51.560;14.368;2022-11-02T08:58:39;100748.16;;;16.44;65.89
65553;BME280;52465;51.560;14.368;2022-11-02T09:01:04;100733.25;;;16.36;66.02
65553;BME280;52465;51.560;14.368;2022-11-02T09:03:30;100752.66;;;16.43;66.03
65553;BME280;52465;51.560;14.368;2022-11-02T09:05:59;100749.66;;;16.46;66.06
65553;BME280;52465;51.560;14.368;2022-11-02T09:08:25;100739.91;;;16.47;65.95
65553;BME280;52465;51.560;14.368;2022-11-02T09:10:52;100740.72;;;16.47;66.05
65553;BME280;52465;51.560;14.368;2022-11-02T09:13:21;100746.00;;;16.47;66.06
65553;BME280;52465;51.560;14.368;2022-11-02T09:15:51;100742.34;;;16.48;66.00
65553;BME280;52465;51.560;14.368;2022-11-02T09:18:18;100748.44;;;16.49;66.01
65553;BME280;52465;51.560;14.368;2022-11-02T09:20:47;100736.72;;;16.51;65.73
65553;BME280;52465;51.560;14.368;2022-11-02T09:23:14;100740.16;;;16.52;65.90
65553;BME280;52465;51.560;14.368;2022-11-02T09:25:39;100735.06;;;16.50;65.92
65553;BME280;52465;51.560;14.368;2022-11-02T09:28:05;100747.09;;;16.53;65.81
65553;BME280;52465;51.560;14.368;2022-11-02T09:30:30;100738.34;;;16.52;66.01
65553;BME280;52465;51.560;14.368;2022-11-02T09:32:57;100749.38;;;16.56;65.90
65553;BME280;52465;51.560;14.368;2022-11-02T09:35:24;100741.44;;;16.56;65.82
65553;BME280;52465;51.560;14.368;2022-11-02T09:37:49;100737.97;;;16.55;66.01
65553;BME280;52465;51.560;14.368;2022-11-02T09:40:20;100747.34;;;16.58;65.92
65553;BME280;52465;51.560;14.368;2022-11-02T09:42:57;100741.25;;;16.57;65.82
65553;BME280;52465;51.560;14.368;2022-11-02T09:45:28;100750.63;;;16.60;65.74
65553;BME280;52465;51.560;14.368;2022-11-02T09:48:01;100747.97;;;16.60;65.87
65553;BME280;52465;51.560;14.368;2022-11-02T09:50:37;100745.19;;;16.61;65.83
65553;BME280;52465;51.560;14.368;2022-11-02T09:53:06;100744.53;;;16.59;65.79
65553;BME280;52465;51.560;14.368;2022-11-02T09:55:36;100750.28;;;16.63;65.83
65553;BME280;52465;51.560;14.368;2022-11-02T09:58:11;100742.34;;;16.63;65.88
65553;BME280;52465;51.560;14.368;2022-11-02T10:00:39;100747.44;;;16.64;65.73
65553;BME280;52465;51.560;14.368;2022-11-02T10:05:55;100741.97;;;16.66;65.87
65553;BME280;52465;51.560;14.368;2022-11-02T10:08:36;100752.38;;;16.67;65.83
65553;BME280;52465;51.560;14.368;2022-11-02T10:11:29;100748.72;;;16.69;65.62
65553;BME280;52465;51.560;14.368;2022-11-02T10:14:17;100747.72;;;16.70;65.65
65553;BME280;52465;51.560;14.368;2022-11-02T10:17:03;100752.03;;;16.71;65.63
65553;BME280;52465;51.560;14.368;2022-11-02T10:19:33;100742.41;;;16.70;65.73
65553;BME280;52465;51.560;14.368;2022-11-02T10:22:01;100758.94;;;16.72;65.63
65553;BME280;52465;51.560;14.368;2022-11-02T10:24:38;100760.59;;;16.73;65.76
65553;BME280;52465;51.560;14.368;2022-11-02T10:27:16;100760.59;;;16.73;65.75
65553;BME280;52465;51.560;14.368;2022-11-02T10:32:30;100754.13;;;16.75;65.59
65553;BME280;52465;51.560;14.368;2022-11-02T10:34:56;100754.94;;;16.76;65.80
65553;BME280;52465;51.560;14.368;2022-11-02T10:37:56;100746.38;;;16.74;65.58
65553;BME280;52465;51.560;14.368;2022-11-02T10:48:48;100764.16;;;16.80;65.73
65553;BME280;52465;51.560;14.368;2022-11-02T10:51:17;100752.56;;;16.81;65.45
65553;BME280;52465;51.560;14.368;2022-11-02T10:53:46;100760.50;;;16.81;65.60
65553;BME280;52465;51.560;14.368;2022-11-02T10:58:49;100764.75;;;16.82;65.49
65553;BME280;52465;51.560;14.368;2022-11-02T11:01:15;100763.75;;;16.83;65.48
65553;BME280;52465;51.560;14.368;2022-11-02T11:03:59;100766.25;;;16.84;65.50
65553;BME280;52465;51.560;14.368;2022-11-02T11:06:39;100775.81;;;16.85;65.50
65553;BME280;52465;51.560;14.368;2022-11-02T11:09:13;100761.38;;;16.88;65.46
65553;BME280;52465;51.560;14.368;2022-11-02T11:11:40;100761.22;;;16.89;65.36
65553;BME280;52465;51.560;14.368;2022-11-02T11:14:14;100758.72;;;16.88;65.27
65553;BME280;52465;51.560;14.368;2022-11-02T11:16:43;100750.00;;;16.87;65.36
65553;BME280;52465;51.560;14.368;2022-11-02T11:19:21;100756.09;;;16.88;65.61
65553;BME280;52465;51.560;14.368;2022-11-02T11:21:47;100759.56;;;16.88;65.39
65553;BME280;52465;51.560;14.368;2022-11-02T11:24:30;100769.31;;;16.88;65.47
65553;BME280;52465;51.560;14.368;2022-11-02T11:27:04;100759.56;;;16.88;65.58
65553;BME280;52465;51.560;14.368;2022-11-02T11:29:34;100762.19;;;16.88;65.60
65553;BME280;52465;51.560;14.368;2022-11-02T11:32:02;100769.31;;;16.88;65.50
65553;BME280;52465;51.560;14.368;2022-11-02T11:34:30;100768.31;;;16.89;65.48
65553;BME280;52465;51.560;14.368;2022-11-02T11:37:08;100766.50;;;16.89;65.69
65553;BME280;52465;51.560;14.368;2022-11-02T11:39:36;100766.31;;;16.91;65.46
65553;BME280;52465;51.560;14.368;2022-11-02T11:42:03;100773.25;;;16.92;65.51
65553;BME280;52465;51.560;14.368;2022-11-02T11:44:29;100769.78;;;16.91;65.68
65553;BME280;52465;51.560;14.368;2022-11-02T11:46:56;100769.59;;;16.93;65.43
65553;BME280;52465;51.560;14.368;2022-11-02T11:49:26;100781.78;;;16.94;65.59
65553;BME280;52465;51.560;14.368;2022-11-02T11:51:54;100769.38;;;16.95;65.47
65553;BME280;52465;51.560;14.368;2022-11-02T11:54:24;100778.16;;;16.95;65.69
65553;BME280;52465;51.560;14.368;2022-11-02T11:56:53;100771.69;;;16.98;65.58
65553;BME280;52465;51.560;14.368;2022-11-02T11:59:30;100771.06;;;16.96;65.48
65553;BME280;52465;51.560;14.368;2022-11-02T12:02:30;100771.88;;;16.96;65.34
65553;BME280;52465;51.560;14.368;2022-11-02T12:05:00;100769.84;;;16.98;65.54
65553;BME280;52465;51.560;14.368;2022-11-02T12:10:35;100769.03;;;16.98;65.49
65553;BME280;52465;51.560;14.368;2022-11-02T12:18:29;100761.91;;;16.98;65.35
65553;BME280;52465;51.560;14.368;2022-11-02T12:26:35;100768.22;;;16.97;65.42
65553;BME280;52465;51.560;14.368;2022-11-02T12:32:47;100765.38;;;16.99;65.59
65553;BME280;52465;51.560;14.368;2022-11-02T12:35:23;100773.13;;;17.00;65.40
65553;BME280;52465;51.560;14.368;2022-11-02T12:41:07;100765.38;;;16.99;65.44
65553;BME280;52465;51.560;14.368;2022-11-02T12:43:46;100765.38;;;16.99;65.37
65553;BME280;52465;51.560;14.368;2022-11-02T12:46:27;100760.91;;;16.99;65.38
65553;BME280;52465;51.560;14.368;2022-11-02T12:49:18;100759.06;;;17.00;65.40
65553;BME280;52465;51.560;14.368;2022-11-02T12:51:56;100756.44;;;17.00;65.48
65553;BME280;52465;51.560;14.368;2022-11-02T12:54:29;100749.31;;;17.00;65.38
65553;BME280;52465;51.560;14.368;2022-11-02T12:56:59;100746.50;;;17.02;65.37
65553;BME280;52465;51.560;14.368;2022-11-02T12:59:30;100749.16;;;17.02;65.54
65553;BME280;52465;51.560;14.368;2022-11-02T13:02:04;100755.25;;;17.02;65.39
65553;BME280;52465;51.560;14.368;2022-11-02T13:04:32;100753.22;;;17.04;65.49
65553;BME280;52465;51.560;14.368;2022-11-02T13:07:03;100751.41;;;17.05;65.32
65553;BME280;52465;51.560;14.368;2022-11-02T13:09:35;100758.97;;;17.08;65.19
65553;BME280;52465;51.560;14.368;2022-11-02T13:12:13;100749.56;;;17.05;65.22
65553;BME280;52465;51.560;14.368;2022-11-02T13:14:46;100751.25;;;17.06;65.34
65553;BME280;52465;51.560;14.368;2022-11-02T13:17:32;100754.88;;;17.05;65.21
65553;BME280;52465;51.560;14.368;2022-11-02T13:22:55;100758.97;;;17.08;65.21
65553;BME280;52465;51.560;14.368;2022-11-02T13:25:32;100758.97;;;17.08;65.24
65553;BME280;52465;51.560;14.368;2022-11-02T13:28:03;100752.88;;;17.07;65.21
65553;BME280;52465;51.560;14.368;2022-11-02T13:30:31;100754.50;;;17.08;65.23
65553;BME280;52465;51.560;14.368;2022-11-02T13:33:02;100756.34;;;17.08;65.21
65553;BME280;52465;51.560;14.368;2022-11-02T13:35:35;100749.22;;;17.08;65.17
65553;BME280;52465;51.560;14.368;2022-11-02T13:38:22;100756.34;;;17.08;65.25
65553;BME280;52465;51.560;14.368;2022-11-02T13:46:48;100765.09;;;17.08;65.13
65553;BME280;52465;51.560;14.368;2022-11-02T13:49:25;100768.75;;;17.07;65.32
65553;BME280;52465;51.560;14.368;2022-11-02T13:52:01;100763.25;;;17.09;65.19
65553;BME280;52465;51.560;14.368;2022-11-02T13:54:32;100769.38;;;17.09;65.24
65553;BME280;52465;51.560;14.368;2022-11-02T13:57:00;100758.97;;;17.08;65.21
65553;BME280;52465;51.560;14.368;2022-11-02T13:59:30;100772.00;;;17.09;65.37